Time;durP1;ratioP1;P1;durP2;ratioP2;P2;SDS_P1;SDS_P2;PMS_P1;PMS_P2;Temp;Humidity;BMP_temperature;BMP_pressure;BME280_temperature;BME280_humidity;BME280_pressure;Samples;Min_cycle;Max_cycle;Signal;HPM_P1;HPM_P2
2022/07/13 00:01:11;;;;;;;1.05;0.95;;;;;;;19.54;42.23;99997.56;5014431;28;20037;-80
2022/07/13 00:03:36;;;;;;;1.30;0.90;;;;;;;19.38;41.81;99987.59;5014070;28;20133;-80
2022/07/13 00:06:02;;;;;;;0.80;0.80;;;;;;;19.61;41.85;100005.22;4996852;28;20045;-80
2022/07/13 00:08:28;;;;;;;2.60;1.67;;;;;;;19.67;42.32;100001.41;5014460;28;20045;-80
2022/07/13 00:10:53;;;;;;;0.85;0.82;;;;;;;19.59;41.43;100000.91;5014739;28;20518;-80
2022/07/13 00:13:19;;;;;;;0.80;0.80;;;;;;;19.68;41.60;99985.28;5014243;28;20030;-83
2022/07/13 00:15:44;;;;;;;1.20;1.10;;;;;;;19.69;41.55;100002.19;5014137;28;20030;-80
2022/07/13 00:18:10;;;;;;;1.15;0.93;;;;;;;19.70;41.80;100011.97;5014278;28;20030;-80
2022/07/13 00:20:36;;;;;;;0.90;0.70;;;;;;;19.53;42.19;99991.34;5013696;28;20025;-80
2022/07/13 00:23:01;;;;;;;0.85;0.77;;;;;;;19.47;42.19;100003.19;5014197;28;20037;-80
2022/07/13 00:25:27;;;;;;;1.23;1.02;;;;;;;19.41;42.42;100006.16;5014528;28;20034;-81
2022/07/13 00:27:52;;;;;;;4.63;1.48;;;;;;;19.30;42.79;100004.00;5014029;28;20033;-80
2022/07/13 00:30:18;;;;;;;2.70;1.10;;;;;;;19.45;42.39;100001.56;5013836;28;20033;-82
2022/07/13 00:32:43;;;;;;;1.92;1.38;;;;;;;19.24;42.23;99984.69;5013515;28;20045;-82
2022/07/13 00:35:09;;;;;;;0.70;0.70;;;;;;;19.31;42.44;100004.88;5020743;28;20033;-81
2022/07/13 00:37:34;;;;;;;1.90;0.75;;;;;;;19.16;42.51;99992.22;5031631;28;20068;-81
2022/07/13 00:40:00;;;;;;;1.25;0.73;;;;;;;19.14;42.20;99986.94;5014107;28;20049;-81
2022/07/13 00:42:25;;;;;;;1.85;1.08;;;;;;;19.31;41.70;100002.19;5013878;28;20499;-82
2022/07/13 00:44:51;;;;;;;1.30;0.95;;;;;;;19.20;42.40;99989.31;5013992;28;20029;-85
2022/07/13 00:47:17;;;;;;;1.00;0.90;;;;;;;19.25;41.79;99999.81;5013949;28;20030;-82
2022/07/13 00:49:43;;;;;;;1.83;0.90;;;;;;;19.25;42.08;99989.97;5013201;28;20041;-81
2022/07/13 00:52:09;;;;;;;1.10;0.95;;;;;;;19.48;42.22;100009.44;5013973;28;20033;-80
2022/07/13 00:54:36;;;;;;;1.35;1.13;;;;;;;19.43;41.77;99993.59;5013619;28;20040;-80
2022/07/13 00:57:07;;;;;;;1.80;1.10;;;;;;;19.32;41.71;99994.09;5013750;28;20029;-81
2022/07/13 00:59:36;;;;;;;0.93;0.80;;;;;;;19.46;41.88;99997.91;5013572;28;20056;-80
2022/07/13 01:02:02;;;;;;;1.65;1.02;;;;;;;19.43;41.79;99996.28;5013399;28;20119;-80
2022/07/13 01:04:28;;;;;;;2.03;0.73;;;;;;;19.12;41.84;99970.97;4994375;28;20045;-81
2022/07/13 01:06:54;;;;;;;1.27;1.17;;;;;;;19.26;42.03;99994.38;5013581;28;20045;-80
2022/07/13 01:09:23;;;;;;;0.75;0.70;;;;;;;19.39;42.43;99994.69;5013302;28;20029;-80
2022/07/13 01:11:50;;;;;;;2.35;1.00;;;;;;;19.41;41.88;99998.13;5013558;28;20026;-80
2022/07/13 01:14:15;;;;;;;1.58;1.20;;;;;;;19.50;41.46;99992.34;5012562;28;20094;-80
2022/07/13 01:16:41;;;;;;;3.33;0.85;;;;;;;19.20;41.80;99967.94;5013049;28;20073;-82
2022/07/13 01:19:10;;;;;;;1.52;1.00;;;;;;;19.50;41.60;99995.03;4994533;28;20054;-80
2022/07/13 01:21:39;;;;;;;1.10;1.00;;;;;;;19.41;41.96;99970.53;5012903;28;20037;-81
2022/07/13 01:24:05;;;;;;;1.00;0.80;;;;;;;19.29;42.23;99983.56;5012803;28;20046;-80
2022/07/13 01:26:31;;;;;;;0.60;0.60;;;;;;;19.60;41.55;100002.63;5013080;28;20030;-80
2022/07/13 01:28:56;;;;;;;0.75;0.63;;;;;;;19.47;42.40;99995.16;5013270;28;20045;-81
2022/07/13 01:31:40;;;;;;;4.50;0.88;;;;;;;19.39;42.04;99988.47;5012499;28;20041;-80
2022/07/13 01:34:07;;;;;;;1.52;1.38;;;;;;;19.19;42.68;99984.03;5012696;28;20080;-81
2022/07/13 01:36:37;;;;;;;1.48;1.15;;;;;;;19.12;43.19;99992.34;5012735;28;20121;-81
2022/07/13 01:39:04;;;;;;;0.70;0.70;;;;;;;19.03;42.37;99976.72;4994859;28;20131;-81
2022/07/13 01:41:30;;;;;;;2.65;1.02;;;;;;;19.06;42.85;99970.34;5012546;28;20042;-80
2022/07/13 01:43:57;;;;;;;0.98;0.80;;;;;;;19.20;42.57;99981.31;5011992;28;20040;-83
2022/07/13 01:46:24;;;;;;;1.48;1.38;;;;;;;19.18;42.09;99974.28;5012904;28;20038;-81
2022/07/13 01:48:49;;;;;;;2.63;1.60;;;;;;;19.07;42.45;99953.38;5012662;28;20592;-81
2022/07/13 01:51:15;;;;;;;1.00;0.90;;;;;;;19.11;42.28;99969.22;5011962;28;20041;-80
2022/07/13 01:53:40;;;;;;;0.70;0.70;;;;;;;19.24;42.17;99980.19;5012433;28;20419;-81
2022/07/13 01:56:06;;;;;;;1.25;0.93;;;;;;;19.20;42.60;99983.09;5012245;28;20077;-85
2022/07/13 01:58:32;;;;;;;0.85;0.63;;;;;;;19.16;42.17;99979.69;5012522;28;20037;-81
2022/07/13 02:00:58;;;;;;;2.08;0.82;;;;;;;19.11;42.47;99966.53;5012104;28;20045;-81
2022/07/13 02:03:24;;;;;;;2.05;1.02;;;;;;;18.97;42.93;99960.97;5012317;28;20595;-81
2022/07/13 02:05:50;;;;;;;2.03;0.90;;;;;;;19.09;42.19;99952.38;5012177;28;20026;-80
2022/07/13 02:08:16;;;;;;;1.88;1.08;;;;;;;19.12;42.53;99962.94;5012655;28;20068;-80
2022/07/13 02:10:42;;;;;;;0.70;0.68;;;;;;;18.88;42.80;99964.91;5012095;28;20176;-81
2022/07/13 02:13:11;;;;;;;1.20;1.10;;;;;;;18.78;43.49;99963.56;5012040;28;20128;-80
2022/07/13 02:15:36;;;;;;;1.02;0.80;;;;;;;19.10;42.25;99978.16;5011443;28;20038;-80
2022/07/13 02:18:02;;;;;;;0.88;0.80;;;;;;;19.13;42.61;99983.38;5011798;28;20034;-80
2022/07/13 02:20:27;;;;;;;0.70;0.70;;;;;;;19.08;42.43;99966.69;5012222;28;20034;-80
2022/07/13 02:22:53;;;;;;;1.00;0.88;;;;;;;19.14;42.22;99979.78;5012013;28;20030;-80
2022/07/13 02:25:18;;;;;;;1.35;1.00;;;;;;;19.13;42.46;99985.19;5012064;28;20115;-80
2022/07/13 02:27:44;;;;;;;0.70;0.70;;;;;;;18.91;42.60;99964.78;5011686;28;20407;-80
2022/07/13 02:30:11;;;;;;;1.50;0.93;;;;;;;18.90;42.73;99979.06;5011952;28;20060;-80
2022/07/13 02:32:37;;;;;;;0.63;0.52;;;;;;;18.83;42.79;99966.00;5011392;28;20048;-80
2022/07/13 02:35:04;;;;;;;1.10;0.75;;;;;;;19.14;42.46;99978.91;5011771;28;20112;-81
2022/07/13 02:37:29;;;;;;;0.70;0.70;;;;;;;19.05;42.26;99982.88;5011884;28;20034;-82
2022/07/13 02:39:56;;;;;;;0.80;0.70;;;;;;;18.72;42.60;99946.00;5012303;28;20084;-81
2022/07/13 02:42:24;;;;;;;1.13;0.70;;;;;;;18.92;42.94;99973.66;5011577;28;20038;-81
2022/07/13 02:44:52;;;;;;;2.95;1.27;;;;;;;18.78;42.46;99961.75;5011450;28;20042;-80
2022/07/13 02:47:17;;;;;;;2.33;1.00;;;;;;;18.81;42.90;99973.25;5010508;28;20053;-81
2022/07/13 02:49:43;;;;;;;1.55;1.13;;;;;;;18.78;43.02;99961.75;5010999;28;20523;-79
2022/07/13 02:52:08;;;;;;;1.20;1.10;;;;;;;18.59;43.01;99956.34;5011462;28;20033;-79
2022/07/13 02:54:34;;;;;;;1.20;1.10;;;;;;;18.58;43.51;99967.09;5011398;28;20034;-79
2022/07/13 02:56:59;;;;;;;0.60;0.60;;;;;;;18.56;43.57;99977.84;5011660;28;20037;-79
2022/07/13 02:59:25;;;;;;;0.70;0.70;;;;;;;18.57;42.83;99955.56;5011282;28;20022;-78
2022/07/13 03:01:50;;;;;;;0.52;0.52;;;;;;;18.59;43.33;99976.88;5011382;28;20038;-79
2022/07/13 03:04:16;;;;;;;1.75;1.00;;;;;;;18.61;43.22;99983.00;5009971;28;20030;-80
2022/07/13 03:06:42;;;;;;;1.00;0.80;;;;;;;18.70;43.23;99987.94;5010554;28;20038;-80
2022/07/13 03:09:08;;;;;;;0.70;0.70;;;;;;;18.48;43.51;99977.31;5010959;28;20404;-82
2022/07/13 03:11:33;;;;;;;0.57;0.43;;;;;;;18.43;43.66;99961.50;5010830;28;20038;-82
2022/07/13 03:13:59;;;;;;;1.98;1.00;;;;;;;18.51;43.70;99965.66;5011542;28;20479;-81
2022/07/13 03:16:24;;;;;;;1.17;0.95;;;;;;;18.42;44.18;99959.75;5010753;28;20033;-81
2022/07/13 03:18:49;;;;;;;1.40;1.00;;;;;;;18.47;44.38;99982.75;5010747;28;20408;-79
2022/07/13 03:21:15;;;;;;;0.60;0.50;;;;;;;18.49;44.40;99980.84;5011283;28;20539;-81
2022/07/13 03:23:41;;;;;;;3.50;1.00;;;;;;;18.58;44.54;99965.31;5011254;28;20022;-81
2022/07/13 03:26:06;;;;;;;0.90;0.90;;;;;;;18.43;44.59;99966.84;5010073;28;20037;-80
2022/07/13 03:28:32;;;;;;;1.42;0.98;;;;;;;18.31;44.93;99964.69;5011173;28;20484;-80
2022/07/13 03:30:57;;;;;;;1.00;0.68;;;;;;;18.38;45.08;99978.66;5011474;28;20036;-80
2022/07/13 03:33:23;;;;;;;1.60;1.13;;;;;;;18.55;44.97;99981.47;4991935;28;20054;-80
2022/07/13 03:35:48;;;;;;;1.02;0.80;;;;;;;18.38;45.00;99952.84;5010835;28;20492;-80
2022/07/13 03:38:15;;;;;;;2.08;1.70;;;;;;;18.47;45.37;99961.38;5010714;28;20507;-79
2022/07/13 03:40:40;;;;;;;0.80;0.77;;;;;;;18.47;45.53;99961.38;5010337;28;20061;-79
2022/07/13 03:43:06;;;;;;;0.70;0.70;;;;;;;18.49;45.22;99965.72;5011335;28;20428;-79
2022/07/13 03:45:32;;;;;;;0.63;0.63;;;;;;;18.56;45.08;99959.16;5010742;28;20037;-78
2022/07/13 03:47:57;;;;;;;1.35;0.90;;;;;;;18.66;44.94;99970.31;5010055;28;20030;-78
2022/07/13 03:50:23;;;;;;;0.63;0.63;;;;;;;18.43;45.86;99965.97;5009840;28;20042;-79
2022/07/13 03:52:48;;;;;;;4.72;0.90;;;;;;;18.56;45.64;99985.88;5010178;28;20072;-78
2022/07/13 03:55:14;;;;;;;1.00;0.70;;;;;;;18.63;45.50;99972.25;5010185;28;20054;-78
2022/07/13 03:57:40;;;;;;;0.60;0.52;;;;;;;18.89;44.96;99971.13;5010835;28;20079;-79
2022/07/13 04:00:07;;;;;;;1.05;0.93;;;;;;;19.03;45.68;99979.41;5010582;28;20550;-79
2022/07/13 04:02:32;;;;;;;2.35;0.82;;;;;;;18.87;45.45;99981.88;5009970;28;20033;-79
2022/07/13 04:04:58;;;;;;;1.48;0.73;;;;;;;18.89;45.52;99987.16;5010767;28;20534;-78
2022/07/13 04:07:24;;;;;;;0.95;0.95;;;;;;;19.00;46.08;99978.66;4992284;28;20056;-80
2022/07/13 04:09:49;;;;;;;1.08;0.77;;;;;;;19.00;45.58;99974.19;5010089;28;20030;-79
2022/07/13 04:12:20;;;;;;;0.93;0.60;;;;;;;19.04;45.45;99964.22;5010626;28;20030;-81
2022/07/13 04:14:45;;;;;;;0.88;0.63;;;;;;;19.14;45.58;99978.91;5008380;28;20068;-80
2022/07/13 04:17:11;;;;;;;2.40;0.85;;;;;;;19.28;45.65;99989.81;5001683;28;20038;-80
2022/07/13 04:19:37;;;;;;;0.73;0.70;;;;;;;19.29;45.94;99990.69;5007398;28;20109;-80
2022/07/13 04:22:02;;;;;;;1.13;0.80;;;;;;;19.38;45.27;99990.25;5008679;28;20042;-81
2022/07/13 04:24:28;;;;;;;0.95;0.90;;;;;;;19.35;45.46;99993.06;5010785;28;20026;-80
2022/07/13 04:26:53;;;;;;;1.15;1.02;;;;;;;19.54;45.57;99973.47;5009819;28;20041;-80
2022/07/13 04:29:19;;;;;;;1.73;1.13;;;;;;;19.65;45.50;99979.22;5010371;28;20501;-80
2022/07/13 04:31:44;;;;;;;0.80;0.70;;;;;;;19.81;44.41;99982.03;5010544;28;20064;-81
2022/07/13 04:34:10;;;;;;;3.15;0.80;;;;;;;19.78;44.61;99996.41;5009288;28;20443;-84
2022/07/13 04:36:35;;;;;;;1.05;0.82;;;;;;;19.91;44.04;99977.97;5009643;28;20038;-82
2022/07/13 04:39:00;;;;;;;1.25;0.90;;;;;;;20.06;44.83;99973.66;5011871;28;20037;-82
2022/07/13 04:41:26;;;;;;;2.50;0.98;;;;;;;20.21;42.78;99994.31;5011634;28;20104;-82
2022/07/13 04:43:52;;;;;;;2.95;1.45;;;;;;;20.22;42.01;99995.19;5012801;28;20065;-82
2022/07/13 04:46:18;;;;;;;1.35;0.75;;;;;;;20.29;42.51;99985.03;5012713;28;20409;-80
2022/07/13 04:48:43;;;;;;;0.73;0.73;;;;;;;20.46;41.75;99987.69;4995167;28;20412;-82
2022/07/13 04:51:09;;;;;;;1.15;0.82;;;;;;;20.68;41.80;99987.50;5013132;28;20034;-82
2022/07/13 04:53:35;;;;;;;0.80;0.52;;;;;;;20.74;41.78;99981.81;5014195;28;20484;-82
2022/07/13 04:56:01;;;;;;;1.67;0.90;;;;;;;20.99;41.00;100001.09;5013603;28;20508;-82
2022/07/13 04:58:26;;;;;;;0.85;0.57;;;;;;;21.02;41.61;99975.00;5013109;28;20025;-82
2022/07/13 05:00:52;;;;;;;1.75;1.50;;;;;;;21.15;39.67;99993.97;5013515;28;20459;-81
2022/07/13 05:03:17;;;;;;;1.00;0.70;;;;;;;21.41;39.59;99997.91;5013453;28;20045;-82
2022/07/13 05:05:43;;;;;;;0.70;0.43;;;;;;;21.24;39.90;99988.09;5013487;28;20025;-81
2022/07/13 05:08:08;;;;;;;1.27;0.85;;;;;;;21.50;40.69;100006.41;5013311;28;20033;-81
2022/07/13 05:10:34;;;;;;;1.55;0.60;;;;;;;21.66;39.38;99979.56;5013092;28;20064;-81
2022/07/13 05:13:00;;;;;;;0.70;0.63;;;;;;;21.67;38.26;99981.31;5013116;28;20125;-82
2022/07/13 05:15:25;;;;;;;4.95;0.57;;;;;;;21.84;38.64;99991.94;5012582;28;20037;-81
2022/07/13 05:17:51;;;;;;;0.50;0.50;;;;;;;22.10;37.63;100001.19;5012709;28;20041;-80
2022/07/13 05:20:16;;;;;;;0.60;0.60;;;;;;;22.09;37.17;99990.53;5011858;28;20045;-81
2022/07/13 05:22:42;;;;;;;0.73;0.50;;;;;;;22.19;37.24;100005.16;5011543;28;20087;-81
2022/07/13 05:25:08;;;;;;;0.65;0.50;;;;;;;22.26;37.70;100001.19;5013405;28;20087;-80
2022/07/13 05:27:33;;;;;;;0.70;0.40;;;;;;;22.33;38.25;100004.41;5013116;28;20034;-80
2022/07/13 05:29:59;;;;;;;0.47;0.47;;;;;;;22.44;36.58;100006.44;5013041;28;20030;-81
2022/07/13 05:32:24;;;;;;;0.73;0.40;;;;;;;22.75;37.30;99975.88;5012982;28;20046;-81
2022/07/13 05:34:50;;;;;;;1.02;0.80;;;;;;;22.85;36.33;99992.34;5013208;28;20037;-81
2022/07/13 05:37:15;;;;;;;0.25;0.25;;;;;;;22.90;36.09;99995.59;5012858;28;20025;-81
2022/07/13 05:39:45;;;;;;;0.50;0.50;;;;;;;22.83;36.15;99976.28;5011848;28;20066;-85
2022/07/13 05:42:11;;;;;;;0.90;0.45;;;;;;;23.01;36.11;99966.19;5012886;28;20033;-82
2022/07/13 05:44:37;;;;;;;0.88;0.50;;;;;;;23.26;35.84;99996.13;5012121;28;20510;-81
2022/07/13 05:47:03;;;;;;;0.28;0.28;;;;;;;23.24;36.46;99983.63;5012721;28;20025;-83
2022/07/13 05:49:28;;;;;;;0.55;0.50;;;;;;;23.44;36.05;99992.25;5011258;28;20029;-82
2022/07/13 05:51:54;;;;;;;9.02;0.88;;;;;;;23.57;36.68;99995.03;5012031;28;20038;-82
2022/07/13 05:54:20;;;;;;;0.70;0.40;;;;;;;23.58;35.47;99986.84;5012675;28;20037;-82
2022/07/13 05:56:45;;;;;;;3.42;0.98;;;;;;;23.50;34.86;99975.72;5012825;28;20092;-82
2022/07/13 05:59:11;;;;;;;0.32;0.32;;;;;;;23.25;34.47;99989.88;5012725;28;20044;-81
2022/07/13 06:01:36;;;;;;;0.82;0.52;;;;;;;23.37;35.16;99985.53;5011984;28;20040;-81
2022/07/13 06:04:01;;;;;;;1.65;0.73;;;;;;;23.64;36.40;99982.06;5011795;28;20048;-81
2022/07/13 06:06:27;;;;;;;0.30;0.30;;;;;;;23.90;35.35;99985.78;5011908;28;20022;-80
2022/07/13 06:08:52;;;;;;;1.60;0.70;;;;;;;23.77;33.94;99977.56;5012154;28;20405;-82
2022/07/13 06:11:18;;;;;;;1.00;0.77;;;;;;;24.02;34.19;99984.94;5012204;28;20037;-82
2022/07/13 06:13:43;;;;;;;1.45;0.57;;;;;;;24.41;34.73;99990.47;5012307;28;20026;-83
2022/07/13 06:16:09;;;;;;;2.25;0.90;;;;;;;24.65;34.59;99980.72;5012379;28;20029;-82
2022/07/13 06:18:35;;;;;;;1.05;0.77;;;;;;;24.72;34.33;99991.94;5011943;28;20056;-83
2022/07/13 06:21:01;;;;;;;0.55;0.30;;;;;;;24.77;32.71;99972.72;5011968;28;20076;-82
2022/07/13 06:23:26;;;;;;;0.80;0.73;;;;;;;24.39;32.23;99993.25;5012381;28;20448;-81
2022/07/13 06:25:53;;;;;;;0.47;0.47;;;;;;;24.03;34.22;99967.81;5011899;28;20500;-82
2022/07/13 06:28:19;;;;;;;2.83;0.65;;;;;;;24.46;33.38;99989.16;5012148;28;20037;-83
2022/07/13 06:30:45;;;;;;;0.82;0.63;;;;;;;24.73;33.07;99985.59;5012335;28;20030;-84
2022/07/13 06:33:10;;;;;;;0.55;0.45;;;;;;;24.58;32.00;99963.22;5012023;28;20448;-82
2022/07/13 06:35:36;;;;;;;0.40;0.30;;;;;;;24.55;32.42;99966.09;5011808;28;20034;-82
2022/07/13 06:38:01;;;;;;;0.85;0.43;;;;;;;24.94;32.98;99976.94;5011868;28;20053;-82
2022/07/13 06:40:27;;;;;;;0.40;0.40;;;;;;;24.80;31.60;99965.28;4993323;28;20136;-82
2022/07/13 06:42:52;;;;;;;0.20;0.20;;;;;;;24.76;33.44;99971.00;5011891;28;20049;-83
2022/07/13 06:45:18;;;;;;;0.65;0.30;;;;;;;24.81;32.61;99961.63;5011875;28;20030;-83
2022/07/13 06:47:44;;;;;;;1.55;0.68;;;;;;;24.84;33.06;99956.00;5011694;28;20424;-82
2022/07/13 06:50:10;;;;;;;0.32;0.20;;;;;;;24.95;32.32;99976.00;5011446;28;20022;-83
2022/07/13 06:52:40;;;;;;;1.65;0.40;;;;;;;25.03;33.04;99962.81;5011590;28;20088;-82
2022/07/13 06:55:07;;;;;;;1.60;1.50;;;;;;;25.54;31.75;99954.63;5011677;28;20085;-82
2022/07/13 06:57:33;;;;;;;2.50;0.60;;;;;;;25.13;32.10;99961.19;5011803;28;20038;-82
2022/07/13 06:59:59;;;;;;;2.10;0.80;;;;;;;25.62;31.44;99961.31;5011512;28;20393;-81
2022/07/13 07:02:24;;;;;;;0.10;0.10;;;;;;;25.63;31.17;99971.16;5011238;28;20412;-82
2022/07/13 07:04:51;;;;;;;0.77;0.57;;;;;;;25.74;30.56;99968.50;5011399;28;20030;-82
2022/07/13 07:07:16;;;;;;;0.40;0.40;;;;;;;25.94;30.41;99968.88;5011721;28;20485;-86
2022/07/13 07:09:42;;;;;;;0.30;0.30;;;;;;;26.04;31.74;99964.53;5011820;28;20061;-82
2022/07/13 07:12:07;;;;;;;0.75;0.50;;;;;;;26.35;31.27;99970.28;5011448;28;20500;-82
2022/07/13 07:14:33;;;;;;;4.53;0.40;;;;;;;26.62;32.87;99951.94;5011448;28;20116;-82
2022/07/13 07:17:01;;;;;;;0.40;0.40;;;;;;;27.14;30.90;99981.28;5011326;28;20124;-82
2022/07/13 07:19:26;;;;;;;2.28;1.00;;;;;;;26.36;29.40;99969.31;4993203;28;20107;-82
2022/07/13 07:21:52;;;;;;;0.80;0.70;;;;;;;26.27;31.10;99970.88;5011783;28;20030;-83
2022/07/13 07:24:17;;;;;;;0.45;0.45;;;;;;;25.88;31.28;99956.69;5011540;28;20109;-83
2022/07/13 07:26:43;;;;;;;0.52;0.38;;;;;;;26.05;32.00;99964.41;5011150;28;20041;-82
2022/07/13 07:29:09;;;;;;;0.47;0.17;;;;;;;26.40;31.73;99968.97;5011258;28;20033;-81
2022/07/13 07:31:34;;;;;;;0.40;0.40;;;;;;;26.59;31.87;99962.13;5011085;28;20040;-83
2022/07/13 07:34:00;;;;;;;0.30;0.30;;;;;;;26.54;31.45;99967.91;5011119;28;20128;-83
2022/07/13 07:36:25;;;;;;;1.75;0.88;;;;;;;26.65;30.45;99964.38;5011072;28;20373;-84
2022/07/13 07:38:51;;;;;;;0.40;0.40;;;;;;;26.67;31.79;99956.16;5011196;28;20041;-84
2022/07/13 07:41:16;;;;;;;0.40;0.32;;;;;;;27.18;31.18;99971.94;5011150;28;20160;-83
2022/07/13 07:43:42;;;;;;;3.03;0.73;;;;;;;26.85;30.09;99973.66;5011318;28;20091;-83
2022/07/13 07:46:07;;;;;;;0.38;0.30;;;;;;;27.35;31.21;99981.47;5010901;28;20539;-82
2022/07/13 07:48:33;;;;;;;0.30;0.30;;;;;;;27.58;30.53;99973.31;5010858;28;20022;-83
2022/07/13 07:50:58;;;;;;;0.77;0.38;;;;;;;27.91;29.80;99971.50;5011050;28;20038;-83
2022/07/13 07:53:24;;;;;;;0.40;0.40;;;;;;;27.80;30.14;99986.81;5010864;28;20250;-83
2022/07/13 07:55:50;;;;;;;3.13;2.38;;;;;;;28.14;30.84;99983.16;5011319;28;20026;-83
2022/07/13 07:58:15;;;;;;;0.32;0.30;;;;;;;27.62;29.54;99970.22;5011244;28;20034;-83
2022/07/13 08:00:42;;;;;;;0.80;0.73;;;;;;;27.71;28.39;99941.50;5010964;28;20500;-83
2022/07/13 08:03:08;;;;;;;0.68;0.50;;;;;;;27.54;29.13;99966.41;5010402;28;20080;-83
2022/07/13 08:05:34;;;;;;;1.80;0.90;;;;;;;27.92;30.68;99965.97;5010924;28;20038;-83
2022/07/13 08:08:01;;;;;;;0.45;0.45;;;;;;;28.22;27.30;99973.41;4992747;28;20038;-83
2022/07/13 08:10:27;;;;;;;0.65;0.50;;;;;;;27.57;26.25;99945.34;5010887;28;20036;-83
2022/07/13 08:12:53;;;;;;;2.38;0.90;;;;;;;27.59;27.80;99962.34;5011557;28;20108;-83
2022/07/13 08:15:20;;;;;;;0.80;0.80;;;;;;;27.66;28.04;99966.25;5014713;28;20493;-83
2022/07/13 08:17:46;;;;;;;0.82;0.40;;;;;;;28.18;27.09;99958.38;5014308;28;20049;-83
2022/07/13 08:20:12;;;;;;;0.50;0.20;;;;;;;28.51;28.80;99951.03;5014776;28;20468;-84
2022/07/13 08:22:38;;;;;;;1.15;0.50;;;;;;;29.10;25.29;99955.00;5014806;28;20551;-83
2022/07/13 08:25:04;;;;;;;0.10;0.10;;;;;;;28.74;26.08;99959.94;5014684;28;20030;-83
2022/07/13 08:27:30;;;;;;;0.60;0.43;;;;;;;28.35;26.24;99962.38;5014405;28;20412;-83
2022/07/13 08:29:56;;;;;;;0.20;0.20;;;;;;;28.15;26.36;99941.53;5014432;28;20030;-83
2022/07/13 08:32:21;;;;;;;0.35;0.25;;;;;;;28.43;28.37;99963.56;5014086;28;20046;-86
2022/07/13 08:40:18;;;;;;;0.63;0.30;;;;;;;28.62;24.33;99974.56;5013944;28;20462;-83
2022/07/13 08:42:44;;;;;;;0.20;0.20;;;;;;;28.60;25.82;99973.84;4995711;28;20460;-85
2022/07/13 08:45:09;;;;;;;0.90;0.45;;;;;;;28.84;26.82;99965.44;5013489;28;20033;-84
2022/07/13 08:47:36;;;;;;;0.50;0.30;;;;;;;28.75;27.32;99964.38;5014096;28;20054;-83
2022/07/13 08:50:05;;;;;;;1.27;0.30;;;;;;;28.57;26.85;99955.94;5014093;28;20121;-83
2022/07/13 08:52:33;;;;;;;1.20;0.43;;;;;;;28.82;26.42;99966.56;4994990;28;20120;-83
2022/07/13 08:54:59;;;;;;;0.20;0.20;;;;;;;28.87;23.99;99969.72;5012751;28;20053;-84
2022/07/13 08:57:25;;;;;;;1.38;0.57;;;;;;;29.04;27.74;99941.97;5013354;28;20499;-86
2022/07/13 08:59:51;;;;;;;0.63;0.43;;;;;;;29.78;24.47;99946.22;4996576;28;20412;-83
2022/07/13 09:02:17;;;;;;;0.25;0.20;;;;;;;29.60;23.95;99940.59;5013861;28;20037;-84
2022/07/13 09:04:44;;;;;;;0.43;0.30;;;;;;;29.75;24.68;99942.91;5013292;28;20030;-84
2022/07/13 09:07:11;;;;;;;0.30;0.30;;;;;;;29.45;23.79;99944.72;5013693;28;20034;-83
2022/07/13 09:09:38;;;;;;;0.55;0.40;;;;;;;29.75;24.95;99960.09;5014085;28;20034;-86
2022/07/13 09:12:11;;;;;;;0.75;0.38;;;;;;;29.25;24.16;99962.81;5013085;28;20034;-84
2022/07/13 09:14:37;;;;;;;1.08;0.35;;;;;;;29.48;24.01;99954.44;5013680;28;20022;-85
2022/07/13 09:17:03;;;;;;;0.30;0.25;;;;;;;29.49;23.85;99942.56;5013216;28;20397;-86
2022/07/13 09:19:38;;;;;;;0.30;0.30;;;;;;;29.93;28.13;99956.72;5013406;28;20471;-86
2022/07/13 09:22:12;;;;;;;;;;;;;;;29.87;26.31;99960.84;5013822;28;20037;-85
2022/07/13 09:24:42;;;;;;;5.30;1.17;;;;;;;30.21;26.87;99945.97;5013193;28;20446;-85
2022/07/13 09:27:08;;;;;;;0.80;0.38;;;;;;;30.36;25.15;99945.38;5013557;28;20040;-85
2022/07/13 09:29:36;;;;;;;0.22;0.15;;;;;;;30.22;24.67;99936.84;5013090;28;20484;-85
2022/07/13 09:32:07;;;;;;;0.43;0.30;;;;;;;29.45;23.23;99920.25;5012989;28;20397;-86
2022/07/13 09:34:53;;;;;;;0.30;0.20;;;;;;;29.74;26.09;99924.91;5012875;28;20128;-86
2022/07/13 09:37:30;;;;;;;0.60;0.43;;;;;;;29.78;25.28;99938.06;5013322;28;20046;-86
2022/07/13 09:40:07;;;;;;;0.65;0.50;;;;;;;29.88;24.39;99950.84;5013309;28;20555;-86
2022/07/13 09:42:40;;;;;;;0.20;0.20;;;;;;;29.69;25.21;99943.47;5013026;28;20066;-87
2022/07/13 09:47:56;;;;;;;0.22;0.22;;;;;;;29.73;27.05;99951.19;5013206;28;20037;-85
2022/07/13 09:50:24;;;;;;;0.55;0.28;;;;;;;29.73;25.61;99945.75;5012815;28;20181;-85
2022/07/13 09:52:51;;;;;;;0.50;0.30;;;;;;;29.77;26.92;99939.06;5012847;28;20030;-86
2022/07/13 09:55:20;;;;;;;1.20;0.50;;;;;;;29.77;24.59;99928.19;5012712;28;20065;-85
2022/07/13 09:57:52;;;;;;;0.73;0.73;;;;;;;29.93;25.92;99945.84;5012682;28;20022;-86
2022/07/13 10:00:18;;;;;;;0.57;0.50;;;;;;;29.69;26.28;99944.34;5010758;28;20567;-85
2022/07/13 10:02:47;;;;;;;0.63;0.40;;;;;;;29.58;26.51;99933.56;5012784;28;20038;-86
2022/07/13 10:05:18;;;;;;;0.60;0.40;;;;;;;30.01;24.73;99918.78;4995000;28;20034;-86
2022/07/13 10:07:46;;;;;;;0.17;0.17;;;;;;;29.88;23.58;99912.78;5012564;28;20037;-86
2022/07/13 10:10:14;;;;;;;1.15;0.77;;;;;;;29.41;27.24;99908.81;5012269;28;20551;-86
2022/07/13 10:12:41;;;;;;;1.65;0.70;;;;;;;29.48;25.62;99906.41;5012830;28;20124;-87
2022/07/13 10:15:07;;;;;;;2.05;0.50;;;;;;;29.61;26.42;99911.56;5012712;28;20034;-84
2022/07/13 10:17:33;;;;;;;0.20;0.20;;;;;;;30.44;26.18;99913.91;5012159;28;20121;-85
2022/07/13 10:20:02;;;;;;;1.15;0.30;;;;;;;29.98;24.03;99900.03;5012453;28;20113;-87
2022/07/13 10:22:32;;;;;;;0.40;0.25;;;;;;;30.12;24.08;99896.91;5012371;28;20030;-86
2022/07/13 10:24:59;;;;;;;0.28;0.28;;;;;;;29.45;25.47;99896.66;5012247;28;20030;-88
2022/07/13 10:27:32;;;;;;;0.30;0.30;;;;;;;29.69;24.73;99902.69;5012281;28;20407;-85
2022/07/13 10:30:21;;;;;;;0.38;0.30;;;;;;;29.35;23.46;99903.94;5012694;28;20029;-84
2022/07/13 10:32:47;;;;;;;0.43;0.30;;;;;;;29.73;26.45;99902.28;5003822;28;20108;-84
2022/07/13 10:35:16;;;;;;;0.90;0.32;;;;;;;30.16;27.21;99894.72;5011685;28;20034;-84
2022/07/13 10:38:00;;;;;;;1.10;0.55;;;;;;;30.45;23.12;99892.00;5011844;28;20030;-83
2022/07/13 10:40:26;;;;;;;0.52;0.40;;;;;;;30.94;26.42;99890.97;5011898;28;20112;-83
2022/07/13 10:42:57;;;;;;;1.35;0.80;;;;;;;30.66;24.73;99882.78;5011882;28;20026;-85
2022/07/13 10:45:31;;;;;;;2.00;0.50;;;;;;;30.99;23.20;99881.38;5011950;28;20034;-84
2022/07/13 10:47:57;;;;;;;0.10;0.10;;;;;;;30.10;24.23;99881.72;5011385;28;20038;-85
2022/07/13 10:50:23;;;;;;;0.20;0.10;;;;;;;30.62;23.41;99890.38;5011865;28;20095;-83
2022/07/13 10:52:49;;;;;;;0.22;0.20;;;;;;;30.46;22.81;99868.34;5011925;28;20084;-84
2022/07/13 10:55:20;;;;;;;0.20;0.20;;;;;;;30.63;21.54;99883.94;5011634;28;20483;-85
2022/07/13 10:57:46;;;;;;;0.90;0.28;;;;;;;30.74;22.80;99872.00;5011826;28;20038;-84
2022/07/13 11:00:19;;;;;;;0.20;0.20;;;;;;;31.35;25.27;99881.47;5011730;28;20033;-87
2022/07/13 11:02:49;;;;;;;0.30;0.22;;;;;;;31.11;25.33;99857.53;5011394;28;20029;-85
2022/07/13 11:05:20;;;;;;;0.82;0.30;;;;;;;30.91;23.44;99853.16;5010790;28;20029;-85
2022/07/13 11:07:50;;;;;;;0.20;0.20;;;;;;;30.09;23.08;99855.50;5011550;28;20030;-84
2022/07/13 11:10:19;;;;;;;0.30;0.30;;;;;;;30.09;24.79;99848.22;5011495;28;20171;-84
2022/07/13 11:13:08;;;;;;;0.65;0.40;;;;;;;30.84;25.17;99864.66;5011284;28;20075;-85
2022/07/13 11:15:50;;;;;;;0.52;0.45;;;;;;;30.60;24.34;99848.84;5011657;28;20460;-86
2022/07/13 11:18:21;;;;;;;0.30;0.30;;;;;;;30.34;22.45;99857.63;5011346;28;20029;-85
2022/07/13 11:21:14;;;;;;;1.25;0.50;;;;;;;30.68;27.42;99868.00;5011729;28;20088;-84
2022/07/13 11:27:02;;;;;;;0.25;0.20;;;;;;;30.80;24.39;99835.16;4950740;29;20403;-85
2022/07/13 11:29:48;;;;;;;3.42;1.02;;;;;;;31.43;28.02;99858.91;4950609;29;20046;-85
2022/07/13 11:32:19;;;;;;;0.45;0.45;;;;;;;31.06;24.08;99844.38;4993617;28;20069;-86
2022/07/13 11:34:46;;;;;;;1.65;0.30;;;;;;;31.15;24.58;99844.47;4993572;28;20030;-86
2022/07/13 11:37:13;;;;;;;1.23;0.40;;;;;;;30.89;24.15;99839.69;5011380;28;20033;-85
2022/07/13 11:39:39;;;;;;;1.00;0.70;;;;;;;31.22;21.98;99819.19;5010947;28;20500;-85
2022/07/13 11:42:07;;;;;;;0.55;0.40;;;;;;;31.10;24.94;99828.59;5011115;28;20022;-85
2022/07/13 11:44:34;;;;;;;0.43;0.20;;;;;;;31.00;22.38;99841.38;5011400;28;20028;-86